sensor_id;sensor_type;location;lat;lon;timestamp;pressure;altitude;pressure_sealevel;temperature;humidity
45403;BME280;47427;51.976;5.326;2023-03-14T00:02:07;98821.44;;;11.00;100.00
45403;BME280;47427;51.976;5.326;2023-03-14T00:05:30;98829.38;;;10.91;100.00
45403;BME280;47427;51.976;5.326;2023-03-14T00:08:53;98829.28;;;11.06;100.00
45403;BME280;47427;51.976;5.326;2023-03-14T00:12:16;98816.13;;;11.08;100.00
45403;BME280;47427;51.976;5.326;2023-03-14T00:15:38;98812.59;;;11.11;98.04
45403;BME280;47427;51.976;5.326;2023-03-14T00:19:01;98801.25;;;11.10;95.89
45403;BME280;47427;51.976;5.326;2023-03-14T00:22:24;98794.19;;;11.15;94.77
45403;BME280;47427;51.976;5.326;2023-03-14T00:25:45;98801.22;;;11.15;94.11
45403;BME280;47427;51.976;5.326;2023-03-14T00:29:08;98806.44;;;11.19;93.05
45403;BME280;47427;51.976;5.326;2023-03-14T00:32:29;98805.53;;;11.20;92.23
45403;BME280;47427;51.976;5.326;2023-03-14T00:35:57;98807.34;;;11.11;92.92
45403;BME280;47427;51.976;5.326;2023-03-14T00:39:21;98816.16;;;11.06;93.47
45403;BME280;47427;51.976;5.326;2023-03-14T00:42:42;98813.59;;;10.99;93.50
45403;BME280;47427;51.976;5.326;2023-03-14T00:46:05;98814.53;;;10.90;93.53
45403;BME280;47427;51.976;5.326;2023-03-14T00:49:28;98832.00;;;10.91;94.29
45403;BME280;47427;51.976;5.326;2023-03-14T00:52:50;98850.47;;;10.82;94.67
45403;BME280;47427;51.976;5.326;2023-03-14T00:56:14;98820.78;;;10.72;95.41
45403;BME280;47427;51.976;5.326;2023-03-14T00:59:35;98828.72;;;10.65;97.42
45403;BME280;47427;51.976;5.326;2023-03-14T01:02:58;98820.91;;;10.52;99.34
45403;BME280;47427;51.976;5.326;2023-03-14T01:06:27;98825.38;;;10.41;100.00
45403;BME280;47427;51.976;5.326;2023-03-14T01:09:52;98848.13;;;10.31;100.00
45403;BME280;47427;51.976;5.326;2023-03-14T01:13:15;98847.47;;;9.59;100.00
45403;BME280;47427;51.976;5.326;2023-03-14T01:16:37;98853.66;;;9.11;100.00
45403;BME280;47427;51.976;5.326;2023-03-14T01:20:00;98852.75;;;8.99;100.00
45403;BME280;47427;51.976;5.326;2023-03-14T01:23:23;98859.75;;;8.92;100.00
45403;BME280;47427;51.976;5.326;2023-03-14T01:26:45;98859.72;;;8.90;100.00
45403;BME280;47427;51.976;5.326;2023-03-14T01:30:10;98848.38;;;8.73;100.00
45403;BME280;47427;51.976;5.326;2023-03-14T01:33:35;98850.09;;;8.54;100.00
45403;BME280;47427;51.976;5.326;2023-03-14T01:36:57;98843.13;;;8.44;100.00
45403;BME280;47427;51.976;5.326;2023-03-14T01:40:20;98844.81;;;8.40;100.00
45403;BME280;47427;51.976;5.326;2023-03-14T01:43:44;98845.72;;;8.39;100.00
45403;BME280;47427;51.976;5.326;2023-03-14T01:47:06;98843.94;;;8.34;100.00
45403;BME280;47427;51.976;5.326;2023-03-14T01:50:28;98835.22;;;8.33;100.00
45403;BME280;47427;51.976;5.326;2023-03-14T01:53:51;98836.09;;;8.34;100.00
45403;BME280;47427;51.976;5.326;2023-03-14T01:57:28;98816.03;;;8.28;100.00
45403;BME280;47427;51.976;5.326;2023-03-14T02:00:52;98816.91;;;8.27;100.00
45403;BME280;47427;51.976;5.326;2023-03-14T02:04:20;98813.41;;;8.25;100.00
45403;BME280;47427;51.976;5.326;2023-03-14T02:07:54;98813.41;;;8.16;100.00
45403;BME280;47427;51.976;5.326;2023-03-14T02:11:22;98812.50;;;8.11;100.00
45403;BME280;47427;51.976;5.326;2023-03-14T02:15:11;98802.94;;;8.08;100.00
45403;BME280;47427;51.976;5.326;2023-03-14T02:18:45;98793.31;;;8.04;100.00
45403;BME280;47427;51.976;5.326;2023-03-14T02:22:34;98788.13;;;8.06;100.00
45403;BME280;47427;51.976;5.326;2023-03-14T02:26:25;98795.06;;;8.07;100.00
45403;BME280;47427;51.976;5.326;2023-03-14T02:29:57;98795.09;;;8.08;100.00
45403;BME280;47427;51.976;5.326;2023-03-14T02:33:22;98797.69;;;8.07;100.00
45403;BME280;47427;51.976;5.326;2023-03-14T02:36:45;98795.09;;;8.08;100.00
45403;BME280;47427;51.976;5.326;2023-03-14T02:40:10;98791.59;;;8.09;100.00
45403;BME280;47427;51.976;5.326;2023-03-14T02:43:33;98778.53;;;8.12;100.00
45403;BME280;47427;51.976;5.326;2023-03-14T02:46:57;98778.56;;;8.14;100.00
45403;BME280;47427;51.976;5.326;2023-03-14T02:50:26;98784.66;;;8.16;100.00
45403;BME280;47427;51.976;5.326;2023-03-14T02:53:51;98769.84;;;8.13;100.00
45403;BME280;47427;51.976;5.326;2023-03-14T02:57:17;98768.97;;;8.17;100.00
45403;BME280;47427;51.976;5.326;2023-03-14T03:00:38;98776.81;;;8.19;100.00
45403;BME280;47427;51.976;5.326;2023-03-14T03:04:03;98769.00;;;8.25;100.00
45403;BME280;47427;51.976;5.326;2023-03-14T03:07:26;98769.00;;;8.22;100.00
45403;BME280;47427;51.976;5.326;2023-03-14T03:10:50;98778.56;;;8.21;100.00
45403;BME280;47427;51.976;5.326;2023-03-14T03:14:13;98775.09;;;8.21;100.00
45403;BME280;47427;51.976;5.326;2023-03-14T03:17:36;98763.78;;;8.19;100.00
45403;BME280;47427;51.976;5.326;2023-03-14T03:21:03;98766.38;;;8.17;100.00
45403;BME280;47427;51.976;5.326;2023-03-14T03:24:27;98760.28;;;8.14;100.00
45403;BME280;47427;51.976;5.326;2023-03-14T03:28:10;98756.81;;;8.13;100.00
45403;BME280;47427;51.976;5.326;2023-03-14T03:31:37;98754.16;;;8.15;100.00
45403;BME280;47427;51.976;5.326;2023-03-14T03:35:02;98758.53;;;8.16;100.00
45403;BME280;47427;51.976;5.326;2023-03-14T03:38:26;98748.94;;;8.15;100.00
45403;BME280;47427;51.976;5.326;2023-03-14T03:41:50;98745.47;;;8.16;100.00
45403;BME280;47427;51.976;5.326;2023-03-14T03:45:13;98740.25;;;8.14;100.00
45403;BME280;47427;51.976;5.326;2023-03-14T03:48:45;98742.00;;;8.21;100.00
45403;BME280;47427;51.976;5.326;2023-03-14T03:52:07;98734.16;;;8.28;100.00
45403;BME280;47427;51.976;5.326;2023-03-14T03:55:30;98740.28;;;8.31;100.00
45403;BME280;47427;51.976;5.326;2023-03-14T03:58:53;98746.38;;;8.36;100.00
45403;BME280;47427;51.976;5.326;2023-03-14T04:02:14;98740.28;;;8.36;100.00
45403;BME280;47427;51.976;5.326;2023-03-14T04:05:37;98745.53;;;8.40;100.00
45403;BME280;47427;51.976;5.326;2023-03-14T04:09:04;98755.97;;;8.40;100.00
45403;BME280;47427;51.976;5.326;2023-03-14T04:12:33;98746.41;;;8.44;100.00
45403;BME280;47427;51.976;5.326;2023-03-14T04:16:23;98745.56;;;8.43;100.00
45403;BME280;47427;51.976;5.326;2023-03-14T04:19:49;98749.91;;;8.46;100.00
45403;BME280;47427;51.976;5.326;2023-03-14T04:23:12;98744.69;;;8.46;100.00
45403;BME280;47427;51.976;5.326;2023-03-14T04:26:35;98736.84;;;8.48;100.00
45403;BME280;47427;51.976;5.326;2023-03-14T04:29:58;98743.81;;;8.50;100.00
45403;BME280;47427;51.976;5.326;2023-03-14T04:33:40;98734.22;;;8.57;100.00
45403;BME280;47427;51.976;5.326;2023-03-14T04:37:03;98738.59;;;8.55;100.00
45403;BME280;47427;51.976;5.326;2023-03-14T04:40:31;98729.88;;;8.59;100.00
45403;BME280;47427;51.976;5.326;2023-03-14T04:43:58;98731.63;;;8.58;100.00
45403;BME280;47427;51.976;5.326;2023-03-14T04:47:19;98734.22;;;8.57;100.00
45403;BME280;47427;51.976;5.326;2023-03-14T04:50:43;98734.22;;;8.60;100.00
45403;BME280;47427;51.976;5.326;2023-03-14T04:54:07;98722.91;;;8.61;100.00
45403;BME280;47427;51.976;5.326;2023-03-14T04:57:28;98732.47;;;8.60;100.00
45403;BME280;47427;51.976;5.326;2023-03-14T05:00:51;98735.09;;;8.60;100.00
45403;BME280;47427;51.976;5.326;2023-03-14T05:04:35;98729.00;;;8.61;100.00
45403;BME280;47427;51.976;5.326;2023-03-14T05:08:30;98717.69;;;8.59;100.00
45403;BME280;47427;51.976;5.326;2023-03-14T05:12:01;98715.94;;;8.61;100.00
45403;BME280;47427;51.976;5.326;2023-03-14T05:15:45;98723.78;;;8.60;100.00
45403;BME280;47427;51.976;5.326;2023-03-14T05:19:30;98718.56;;;8.46;100.00
45403;BME280;47427;51.976;5.326;2023-03-14T05:23:12;98708.94;;;8.28;100.00
45403;BME280;47427;51.976;5.326;2023-03-14T05:27:08;98704.53;;;8.12;100.00
45403;BME280;47427;51.976;5.326;2023-03-14T05:30:30;98700.19;;;8.11;100.00
45403;BME280;47427;51.976;5.326;2023-03-14T05:34:18;98705.41;;;8.08;100.00
45403;BME280;47427;51.976;5.326;2023-03-14T05:37:49;98714.97;;;8.07;100.00
45403;BME280;47427;51.976;5.326;2023-03-14T05:41:11;98701.06;;;8.08;100.00
45403;BME280;47427;51.976;5.326;2023-03-14T05:44:51;98704.53;;;8.07;100.00
45403;BME280;47427;51.976;5.326;2023-03-14T05:48:32;98697.56;;;8.08;100.00
45403;BME280;47427;51.976;5.326;2023-03-14T05:52:05;98695.84;;;8.07;100.00
45403;BME280;47427;51.976;5.326;2023-03-14T05:55:55;98701.94;;;8.09;100.00
45403;BME280;47427;51.976;5.326;2023-03-14T05:59:41;98705.44;;;8.11;100.00
45403;BME280;47427;51.976;5.326;2023-03-14T06:03:23;98705.41;;;8.12;100.00
45403;BME280;47427;51.976;5.326;2023-03-14T06:06:44;98697.59;;;8.15;100.00
45403;BME280;47427;51.976;5.326;2023-03-14T06:10:07;98701.97;;;8.18;100.00
45403;BME280;47427;51.976;5.326;2023-03-14T06:13:32;98704.56;;;8.19;100.00
45403;BME280;47427;51.976;5.326;2023-03-14T06:16:53;98702.84;;;8.23;100.00
45403;BME280;47427;51.976;5.326;2023-03-14T06:20:18;98702.84;;;8.26;100.00
45403;BME280;47427;51.976;5.326;2023-03-14T06:23:40;98701.94;;;8.30;100.00
45403;BME280;47427;51.976;5.326;2023-03-14T06:27:25;98691.50;;;8.29;100.00
45403;BME280;47427;51.976;5.326;2023-03-14T06:30:50;98705.47;;;8.40;100.00
45403;BME280;47427;51.976;5.326;2023-03-14T06:34:12;98707.22;;;8.41;100.00
45403;BME280;47427;51.976;5.326;2023-03-14T06:37:34;98698.50;;;8.40;100.00
45403;BME280;47427;51.976;5.326;2023-03-14T06:41:04;98748.16;;;8.40;100.00
45403;BME280;47427;51.976;5.326;2023-03-14T06:44:33;98765.50;;;8.15;100.00
45403;BME280;47427;51.976;5.326;2023-03-14T06:47:56;98782.81;;;7.81;100.00
45403;BME280;47427;51.976;5.326;2023-03-14T06:51:24;98788.72;;;7.46;100.00
45403;BME280;47427;51.976;5.326;2023-03-14T06:54:47;98810.34;;;7.25;100.00
45403;BME280;47427;51.976;5.326;2023-03-14T06:58:12;98825.97;;;7.19;100.00
45403;BME280;47427;51.976;5.326;2023-03-14T07:01:37;98832.84;;;7.12;100.00
45403;BME280;47427;51.976;5.326;2023-03-14T07:05:02;98842.38;;;7.09;100.00
45403;BME280;47427;51.976;5.326;2023-03-14T07:08:24;98855.41;;;7.06;100.00
45403;BME280;47427;51.976;5.326;2023-03-14T07:11:47;98859.75;;;7.05;100.00
45403;BME280;47427;51.976;5.326;2023-03-14T07:15:11;98871.88;;;7.03;100.00
45403;BME280;47427;51.976;5.326;2023-03-14T07:18:33;98879.66;;;6.99;100.00
45403;BME280;47427;51.976;5.326;2023-03-14T07:21:59;98890.09;;;6.97;100.00
45403;BME280;47427;51.976;5.326;2023-03-14T07:25:23;98910.94;;;6.95;100.00
45403;BME280;47427;51.976;5.326;2023-03-14T07:28:46;98924.84;;;6.98;100.00
45403;BME280;47427;51.976;5.326;2023-03-14T07:32:12;98935.25;;;6.94;100.00
45403;BME280;47427;51.976;5.326;2023-03-14T07:35:38;98939.63;;;6.94;100.00
45403;BME280;47427;51.976;5.326;2023-03-14T07:39:00;98963.09;;;6.97;100.00
45403;BME280;47427;51.976;5.326;2023-03-14T07:42:32;98977.84;;;6.95;100.00
45403;BME280;47427;51.976;5.326;2023-03-14T07:46:20;98990.94;;;7.00;100.00
45403;BME280;47427;51.976;5.326;2023-03-14T07:49:41;99000.50;;;7.04;100.00
45403;BME280;47427;51.976;5.326;2023-03-14T07:53:02;99009.25;;;7.09;100.00
45403;BME280;47427;51.976;5.326;2023-03-14T07:56:25;99025.91;;;7.20;100.00
45403;BME280;47427;51.976;5.326;2023-03-14T07:59:48;99048.63;;;7.30;100.00
45403;BME280;47427;51.976;5.326;2023-03-14T08:03:10;99053.88;;;7.36;100.00
45403;BME280;47427;51.976;5.326;2023-03-14T08:06:32;99059.94;;;7.34;100.00
45403;BME280;47427;51.976;5.326;2023-03-14T08:09:54;99085.97;;;7.25;100.00
45403;BME280;47427;51.976;5.326;2023-03-14T08:13:16;99092.84;;;7.20;100.00
45403;BME280;47427;51.976;5.326;2023-03-14T08:16:39;99101.69;;;7.34;100.00
45403;BME280;47427;51.976;5.326;2023-03-14T08:20:00;99111.28;;;7.35;100.00
45403;BME280;47427;51.976;5.326;2023-03-14T08:23:23;99125.84;;;7.14;100.00
45403;BME280;47427;51.976;5.326;2023-03-14T08:26:46;99148.63;;;7.29;100.00
45403;BME280;47427;51.976;5.326;2023-03-14T08:30:13;99164.13;;;7.19;100.00
45403;BME280;47427;51.976;5.326;2023-03-14T08:33:36;99197.66;;;6.91;100.00
45403;BME280;47427;51.976;5.326;2023-03-14T08:36:58;99218.28;;;6.74;100.00
45403;BME280;47427;51.976;5.326;2023-03-14T08:40:20;99228.59;;;6.66;100.00
45403;BME280;47427;51.976;5.326;2023-03-14T08:44:03;99244.09;;;6.59;100.00
45403;BME280;47427;51.976;5.326;2023-03-14T08:47:25;99263.81;;;6.44;100.00
45403;BME280;47427;51.976;5.326;2023-03-14T08:50:48;99293.94;;;6.28;100.00
45403;BME280;47427;51.976;5.326;2023-03-14T08:54:10;99304.59;;;5.95;100.00
45403;BME280;47427;51.976;5.326;2023-03-14T08:57:33;99319.41;;;5.98;100.00
45403;BME280;47427;51.976;5.326;2023-03-14T09:00:56;99327.25;;;6.46;100.00
45403;BME280;47427;51.976;5.326;2023-03-14T09:04:18;99338.41;;;7.46;100.00
45403;BME280;47427;51.976;5.326;2023-03-14T09:07:41;99349.88;;;9.13;100.00
45403;BME280;47427;51.976;5.326;2023-03-14T09:11:07;99372.84;;;8.53;100.00
45403;BME280;47427;51.976;5.326;2023-03-14T09:14:30;99378.06;;;8.53;100.00
45403;BME280;47427;51.976;5.326;2023-03-14T09:17:53;99379.59;;;9.21;100.00
45403;BME280;47427;51.976;5.326;2023-03-14T09:21:14;99390.19;;;9.38;100.00
45403;BME280;47427;51.976;5.326;2023-03-14T09:24:38;99409.41;;;8.50;100.00
45403;BME280;47427;51.976;5.326;2023-03-14T09:28:02;99428.41;;;8.36;100.00
45403;BME280;47427;51.976;5.326;2023-03-14T09:31:23;99439.56;;;8.24;100.00
45403;BME280;47427;51.976;5.326;2023-03-14T09:34:47;99458.16;;;7.84;100.00
45403;BME280;47427;51.976;5.326;2023-03-14T09:38:09;99468.63;;;7.30;100.00
45403;BME280;47427;51.976;5.326;2023-03-14T09:41:39;99492.41;;;6.99;100.00
45403;BME280;47427;51.976;5.326;2023-03-14T09:45:06;99507.53;;;7.18;100.00
45403;BME280;47427;51.976;5.326;2023-03-14T09:48:32;99520.84;;;7.33;100.00
45403;BME280;47427;51.976;5.326;2023-03-14T09:51:57;99542.06;;;7.05;100.00
45403;BME280;47427;51.976;5.326;2023-03-14T09:55:22;99547.22;;;7.49;100.00
45403;BME280;47427;51.976;5.326;2023-03-14T09:58:51;99549.75;;;7.96;100.00
45403;BME280;47427;51.976;5.326;2023-03-14T10:02:25;99562.78;;;7.93;100.00
45403;BME280;47427;51.976;5.326;2023-03-14T10:05:46;99576.34;;;7.72;100.00
45403;BME280;47427;51.976;5.326;2023-03-14T10:09:21;99587.28;;;8.02;100.00
45403;BME280;47427;51.976;5.326;2023-03-14T10:13:19;99614.34;;;9.29;100.00
45403;BME280;47427;51.976;5.326;2023-03-14T10:16:45;99613.19;;;11.21;100.00
45403;BME280;47427;51.976;5.326;2023-03-14T10:20:34;99624.81;;;12.08;100.00
45403;BME280;47427;51.976;5.326;2023-03-14T10:24:26;99646.03;;;10.50;100.00
45403;BME280;47427;51.976;5.326;2023-03-14T10:27:49;99668.06;;;9.00;100.00
45403;BME280;47427;51.976;5.326;2023-03-14T10:31:11;99692.53;;;7.97;100.00
45403;BME280;47427;51.976;5.326;2023-03-14T10:34:37;99723.50;;;7.33;100.00
45403;BME280;47427;51.976;5.326;2023-03-14T10:38:02;99739.59;;;6.76;100.00
45403;BME280;47427;51.976;5.326;2023-03-14T10:41:27;99750.13;;;6.80;100.00
45403;BME280;47427;51.976;5.326;2023-03-14T10:45:04;99755.25;;;7.98;100.00
45403;BME280;47427;51.976;5.326;2023-03-14T10:48:37;99765.47;;;8.83;100.00
45403;BME280;47427;51.976;5.326;2023-03-14T10:52:23;99785.94;;;9.09;100.00
45403;BME280;47427;51.976;5.326;2023-03-14T10:55:46;99787.94;;;9.27;100.00
45403;BME280;47427;51.976;5.326;2023-03-14T10:59:14;99793.09;;;9.89;100.00
45403;BME280;47427;51.976;5.326;2023-03-14T11:03:12;99803.19;;;11.36;100.00
45403;BME280;47427;51.976;5.326;2023-03-14T11:07:03;99832.81;;;10.23;100.00
45403;BME280;47427;51.976;5.326;2023-03-14T11:10:34;99855.16;;;8.78;100.00
45403;BME280;47427;51.976;5.326;2023-03-14T11:21:44;99894.88;;;8.13;100.00
45403;BME280;47427;51.976;5.326;2023-03-14T11:25:42;99896.13;;;8.32;100.00
45403;BME280;47427;51.976;5.326;2023-03-14T11:29:28;99904.06;;;8.38;100.00
45403;BME280;47427;51.976;5.326;2023-03-14T11:36:51;99933.38;;;9.66;100.00
45403;BME280;47427;51.976;5.326;2023-03-14T11:40:25;99946.81;;;11.40;100.00
45403;BME280;47427;51.976;5.326;2023-03-14T11:48:07;99948.53;;;17.70;100.00
45403;BME280;47427;51.976;5.326;2023-03-14T11:51:38;99954.75;;;13.53;100.00
45403;BME280;47427;51.976;5.326;2023-03-14T11:55:17;99964.28;;;14.27;100.00
45403;BME280;47427;51.976;5.326;2023-03-14T11:58:58;99969.66;;;13.83;100.00
45403;BME280;47427;51.976;5.326;2023-03-14T12:03:01;99972.28;;;17.21;100.00
45403;BME280;47427;51.976;5.326;2023-03-14T12:06:49;99985.88;;;17.57;100.00
45403;BME280;47427;51.976;5.326;2023-03-14T12:10:11;100003.31;;;17.73;100.00
45403;BME280;47427;51.976;5.326;2023-03-14T12:13:38;100006.31;;;16.09;100.00
45403;BME280;47427;51.976;5.326;2023-03-14T12:17:36;100011.19;;;17.22;100.00
45403;BME280;47427;51.976;5.326;2023-03-14T12:21:11;100014.66;;;20.92;100.00
45403;BME280;47427;51.976;5.326;2023-03-14T12:24:36;100017.16;;;21.27;97.39
45403;BME280;47427;51.976;5.326;2023-03-14T12:28:04;100053.22;;;19.00;94.30
45403;BME280;47427;51.976;5.326;2023-03-14T12:34:53;100039.84;;;19.42;86.74
45403;BME280;47427;51.976;5.326;2023-03-14T12:42:43;100071.03;;;19.76;90.32
45403;BME280;47427;51.976;5.326;2023-03-14T12:49:39;100084.06;;;20.22;67.53
45403;BME280;47427;51.976;5.326;2023-03-14T12:57:45;100087.66;;;21.77;47.73
45403;BME280;47427;51.976;5.326;2023-03-14T13:01:18;100103.19;;;20.38;43.44
45403;BME280;47427;51.976;5.326;2023-03-14T13:08:43;100118.56;;;22.66;34.29
45403;BME280;47427;51.976;5.326;2023-03-14T13:12:14;100123.63;;;23.24;32.03
45403;BME280;47427;51.976;5.326;2023-03-14T13:15:43;100124.97;;;22.87;32.74
45403;BME280;47427;51.976;5.326;2023-03-14T13:19:19;100132.47;;;23.02;32.23
45403;BME280;47427;51.976;5.326;2023-03-14T13:22:48;100156.13;;;23.13;29.97
45403;BME280;47427;51.976;5.326;2023-03-14T13:26:14;100160.25;;;23.22;30.42
45403;BME280;47427;51.976;5.326;2023-03-14T13:29:36;100165.44;;;23.03;31.64
45403;BME280;47427;51.976;5.326;2023-03-14T13:33:04;100179.16;;;22.67;27.97
45403;BME280;47427;51.976;5.326;2023-03-14T13:36:27;100192.84;;;22.83;29.13
45403;BME280;47427;51.976;5.326;2023-03-14T13:39:57;100196.88;;;22.15;29.44
45403;BME280;47427;51.976;5.326;2023-03-14T13:43:27;100212.28;;;23.14;30.13
45403;BME280;47427;51.976;5.326;2023-03-14T13:46:52;100210.16;;;20.23;32.40
45403;BME280;47427;51.976;5.326;2023-03-14T13:50:18;100225.59;;;19.66;33.08
45403;BME280;47427;51.976;5.326;2023-03-14T13:53:50;100241.22;;;21.30;32.09
45403;BME280;47427;51.976;5.326;2023-03-14T13:57:12;100238.94;;;19.20;32.71
45403;BME280;47427;51.976;5.326;2023-03-14T14:00:35;100263.22;;;17.82;36.08
45403;BME280;47427;51.976;5.326;2023-03-14T14:04:20;100273.78;;;17.87;33.01
45403;BME280;47427;51.976;5.326;2023-03-14T14:07:43;100281.53;;;17.29;34.69
45403;BME280;47427;51.976;5.326;2023-03-14T14:11:08;100287.97;;;19.53;32.01
45403;BME280;47427;51.976;5.326;2023-03-14T14:18:18;100307.81;;;16.46;35.10
45403;BME280;47427;51.976;5.326;2023-03-14T14:21:42;100314.47;;;14.91;38.01
45403;BME280;47427;51.976;5.326;2023-03-14T14:25:05;100323.00;;;13.89;39.31
45403;BME280;47427;51.976;5.326;2023-03-14T14:28:35;100328.31;;;12.68;40.10
45403;BME280;47427;51.976;5.326;2023-03-14T14:32:13;100346.34;;;12.30;42.02
45403;BME280;47427;51.976;5.326;2023-03-14T14:35:41;100340.97;;;12.19;42.85
45403;BME280;47427;51.976;5.326;2023-03-14T14:39:21;100342.50;;;12.00;43.27
45403;BME280;47427;51.976;5.326;2023-03-14T14:42:45;100365.81;;;11.77;44.66
45403;BME280;47427;51.976;5.326;2023-03-14T14:46:15;100363.25;;;11.19;44.78
45403;BME280;47427;51.976;5.326;2023-03-14T14:49:38;100392.19;;;10.72;45.10
45403;BME280;47427;51.976;5.326;2023-03-14T14:53:03;100397.53;;;10.31;44.96
45403;BME280;47427;51.976;5.326;2023-03-14T14:56:28;100417.69;;;9.94;44.92
45403;BME280;47427;51.976;5.326;2023-03-14T14:59:50;100423.06;;;9.61;45.51
45403;BME280;47427;51.976;5.326;2023-03-14T15:03:15;100421.25;;;9.59;46.18
45403;BME280;47427;51.976;5.326;2023-03-14T15:06:38;100416.59;;;9.47;47.02
45403;BME280;47427;51.976;5.326;2023-03-14T15:10:00;100441.16;;;9.50;47.68
45403;BME280;47427;51.976;5.326;2023-03-14T15:13:23;100447.97;;;9.44;49.13
45403;BME280;47427;51.976;5.326;2023-03-14T15:16:45;100470.75;;;9.48;49.38
45403;BME280;47427;51.976;5.326;2023-03-14T15:20:12;100469.47;;;9.30;49.39
45403;BME280;47427;51.976;5.326;2023-03-14T15:23:36;100479.41;;;9.10;50.41
45403;BME280;47427;51.976;5.326;2023-03-14T15:26:57;100483.09;;;9.17;50.20
45403;BME280;47427;51.976;5.326;2023-03-14T15:30:20;100500.56;;;9.18;50.01
45403;BME280;47427;51.976;5.326;2023-03-14T15:33:44;100507.66;;;9.22;49.39
45403;BME280;47427;51.976;5.326;2023-03-14T15:37:12;100508.94;;;9.05;49.85
45403;BME280;47427;51.976;5.326;2023-03-14T15:40:35;100514.06;;;8.70;48.22
45403;BME280;47427;51.976;5.326;2023-03-14T15:43:58;100521.09;;;8.41;49.92
45403;BME280;47427;51.976;5.326;2023-03-14T15:47:21;100529.50;;;8.32;50.83
45403;BME280;47427;51.976;5.326;2023-03-14T15:50:44;100537.25;;;8.29;52.03
45403;BME280;47427;51.976;5.326;2023-03-14T15:54:06;100548.66;;;8.31;52.01
45403;BME280;47427;51.976;5.326;2023-03-14T15:57:29;100551.19;;;8.28;52.52
45403;BME280;47427;51.976;5.326;2023-03-14T16:00:52;100547.94;;;8.37;51.92
45403;BME280;47427;51.976;5.326;2023-03-14T16:04:14;100560.69;;;8.26;51.84
45403;BME280;47427;51.976;5.326;2023-03-14T16:07:37;100562.84;;;8.12;50.92
45403;BME280;47427;51.976;5.326;2023-03-14T16:11:00;100572.97;;;8.01;52.55
45403;BME280;47427;51.976;5.326;2023-03-14T16:14:22;100584.91;;;7.93;51.78
45403;BME280;47427;51.976;5.326;2023-03-14T16:17:45;100594.59;;;7.70;52.83
45403;BME280;47427;51.976;5.326;2023-03-14T16:21:15;100602.09;;;7.61;53.90
45403;BME280;47427;51.976;5.326;2023-03-14T16:24:39;100612.03;;;7.46;54.98
45403;BME280;47427;51.976;5.326;2023-03-14T16:28:22;100620.72;;;7.45;55.46
45403;BME280;47427;51.976;5.326;2023-03-14T16:31:44;100620.16;;;7.29;56.66
45403;BME280;47427;51.976;5.326;2023-03-14T16:35:07;100625.88;;;7.19;56.44
45403;BME280;47427;51.976;5.326;2023-03-14T16:38:28;100634.31;;;7.12;56.74
45403;BME280;47427;51.976;5.326;2023-03-14T16:41:51;100643.19;;;7.17;58.65
45403;BME280;47427;51.976;5.326;2023-03-14T16:45:13;100642.31;;;7.16;59.17
45403;BME280;47427;51.976;5.326;2023-03-14T16:48:35;100647.19;;;7.07;59.54
45403;BME280;47427;51.976;5.326;2023-03-14T16:51:58;100653.00;;;7.00;58.36
45403;BME280;47427;51.976;5.326;2023-03-14T16:55:19;100658.81;;;6.93;58.40
45403;BME280;47427;51.976;5.326;2023-03-14T16:58:42;100665.44;;;7.07;56.15
45403;BME280;47427;51.976;5.326;2023-03-14T17:02:05;100689.44;;;6.99;55.10
45403;BME280;47427;51.976;5.326;2023-03-14T17:05:26;100687.81;;;6.78;53.75
45403;BME280;47427;51.976;5.326;2023-03-14T17:08:50;100691.78;;;6.46;53.99
45403;BME280;47427;51.976;5.326;2023-03-14T17:12:13;100696.41;;;6.32;55.50
45403;BME280;47427;51.976;5.326;2023-03-14T17:15:34;100703.03;;;6.24;56.11
45403;BME280;47427;51.976;5.326;2023-03-14T17:18:57;100709.56;;;6.14;55.91
45403;BME280;47427;51.976;5.326;2023-03-14T17:22:19;100714.25;;;6.02;57.73
45403;BME280;47427;51.976;5.326;2023-03-14T17:25:41;100727.84;;;5.95;58.25
45403;BME280;47427;51.976;5.326;2023-03-14T17:29:04;100723.41;;;5.73;58.97
45403;BME280;47427;51.976;5.326;2023-03-14T17:32:25;100731.75;;;5.46;59.52
45403;BME280;47427;51.976;5.326;2023-03-14T17:35:48;100742.09;;;5.25;61.35
45403;BME280;47427;51.976;5.326;2023-03-14T17:39:11;100725.72;;;5.08;62.02
45403;BME280;47427;51.976;5.326;2023-03-14T17:42:32;100761.63;;;4.97;62.35
45403;BME280;47427;51.976;5.326;2023-03-14T17:46:00;100748.56;;;4.78;64.25
45403;BME280;47427;51.976;5.326;2023-03-14T17:49:22;100757.47;;;4.65;65.73
45403;BME280;47427;51.976;5.326;2023-03-14T17:52:45;100770.91;;;4.56;66.62
45403;BME280;47427;51.976;5.326;2023-03-14T17:56:08;100784.13;;;4.43;67.88
45403;BME280;47427;51.976;5.326;2023-03-14T17:59:30;100792.19;;;4.31;69.07
45403;BME280;47427;51.976;5.326;2023-03-14T18:02:53;100791.13;;;4.28;69.26
45403;BME280;47427;51.976;5.326;2023-03-14T18:06:16;100803.41;;;4.14;70.58
45403;BME280;47427;51.976;5.326;2023-03-14T18:09:40;100803.53;;;3.99;72.09
45403;BME280;47427;51.976;5.326;2023-03-14T18:13:02;100811.06;;;4.11;73.62
45403;BME280;47427;51.976;5.326;2023-03-14T18:16:24;100817.28;;;4.15;73.47
45403;BME280;47427;51.976;5.326;2023-03-14T18:19:47;100819.44;;;3.89;74.22
45403;BME280;47427;51.976;5.326;2023-03-14T18:23:09;100841.00;;;3.72;75.33
45403;BME280;47427;51.976;5.326;2023-03-14T18:26:31;100842.50;;;3.52;76.53
45403;BME280;47427;51.976;5.326;2023-03-14T18:29:54;100844.06;;;3.48;77.35
45403;BME280;47427;51.976;5.326;2023-03-14T18:33:19;100854.00;;;3.40;78.12
45403;BME280;47427;51.976;5.326;2023-03-14T18:36:40;100848.41;;;3.33;78.47
45403;BME280;47427;51.976;5.326;2023-03-14T18:40:04;100852.09;;;3.21;78.52
45403;BME280;47427;51.976;5.326;2023-03-14T18:43:28;100852.88;;;3.04;79.86
45403;BME280;47427;51.976;5.326;2023-03-14T18:46:50;100859.66;;;3.02;80.72
45403;BME280;47427;51.976;5.326;2023-03-14T18:50:34;100861.88;;;2.96;81.40
45403;BME280;47427;51.976;5.326;2023-03-14T18:53:56;100865.47;;;2.98;81.14